Time;durP1;ratioP1;P1;durP2;ratioP2;P2;SDS_P1;SDS_P2;PMS_P1;PMS_P2;Temp;Humidity;BMP_temperature;BMP_pressure;BME280_temperature;BME280_humidity;BME280_pressure;Samples;Min_cycle;Max_cycle;Signal;HPM_P1;HPM_P2
2023/06/12 00:02:20;;;;;;;;;;;;;;;18.18;53.71;100274.75;5429857;32;34864;-72
2023/06/12 00:05:23;;;;;;;;;;;;;;;17.94;54.07;100276.50;5422620;32;35555;-71
2023/06/12 00:08:26;;;;;;;;;;;;;;;17.87;54.63;100270.78;5410632;32;34492;-71
2023/06/12 00:11:28;;;;;;;;;;;;;;;17.70;54.99;100274.56;5427989;32;35021;-67
2023/06/12 00:14:30;;;;;;;;;;;;;;;18.08;53.79;100263.06;5426174;32;34568;-75
2023/06/12 00:17:33;;;;;;;;;;;;;;;18.11;53.15;100266.34;5427073;32;34530;-66
2023/06/12 00:20:35;;;;;;;;;;;;;;;18.08;53.09;100257.75;5409840;32;34407;-66
2023/06/12 00:23:37;;;;;;;;;;;;;;;18.29;52.42;100257.97;5429778;32;35141;-73
2023/06/12 00:26:39;;;;;;;;;;;;;;;18.18;52.45;100258.78;5424730;32;35657;-71
2023/06/12 00:29:41;;;;;;;;;;;;;;;17.26;54.94;100262.59;5431045;32;34768;-72
2023/06/12 00:32:43;;;;;;;;;;;;;;;17.79;53.21;100252.72;5411573;32;34478;-72
2023/06/12 00:35:47;;;;;;;;;;;;;;;17.84;52.95;100261.22;5427583;32;35078;-67
2023/06/12 00:38:51;;;;;;;;;;;;;;;18.05;52.81;100257.97;5415069;32;35844;-74
2023/06/12 00:41:53;;;;;;;;;;;;;;;17.80;53.42;100254.41;5425730;32;35049;-71
2023/06/12 00:44:55;;;;;;;;;;;;;;;17.59;53.98;100255.91;5431722;32;34800;-69
2023/06/12 00:47:57;;;;;;;;;;;;;;;17.57;53.98;100258.66;5426485;32;34313;-67
2023/06/12 00:51:01;;;;;;;;;;;;;;;17.47;53.80;100268.22;5414113;32;34618;-72
2023/06/12 00:54:03;;;;;;;;;;;;;;;18.02;52.61;100259.03;5411222;32;35166;-72
2023/06/12 00:57:07;;;;;;;;;;;;;;;17.81;52.88;100260.56;5411544;32;34981;-67
2023/06/12 01:00:11;;;;;;;;;;;;;;;17.12;54.60;100262.69;5430944;32;35022;-67
2023/06/12 01:03:13;;;;;;;;;;;;;;;17.76;52.87;100255.56;5425121;32;35015;-68
2023/06/12 01:06:16;;;;;;;;;;;;;;;18.08;51.96;100257.75;5413331;32;34755;-67
2023/06/12 01:09:30;;;;;;;;;;;;;;;17.78;52.65;100259.00;5410191;32;34445;-72
2023/06/12 01:12:32;;;;;;;;;;;;;;;17.81;52.86;100260.56;5428662;32;35076;-72
2023/06/12 01:15:34;;;;;;;;;;;;;;;17.47;53.83;100254.94;5428512;32;34788;-73
2023/06/12 01:18:36;;;;;;;;;;;;;;;17.06;54.91;100257.78;5423744;32;34404;-66
2023/06/12 01:21:39;;;;;;;;;;;;;;;17.10;54.79;100253.97;5432528;32;34278;-66
2023/06/12 01:25:00;;;;;;;;;;;;;;;17.14;54.66;100250.16;5420383;32;34937;-68
2023/06/12 01:28:17;;;;;;;;;;;;;;;17.19;54.22;100250.69;5429905;32;35086;-71
2023/06/12 01:31:21;;;;;;;;;;;;;;;17.16;54.67;100248.25;5427207;32;35006;-66
2023/06/12 01:34:35;;;;;;;;;;;;;;;17.85;52.40;100249.63;5427305;32;35544;-72
2023/06/12 01:37:43;;;;;;;;;;;;;;;17.51;53.36;100243.13;5419556;32;36423;-70
2023/06/12 01:40:45;;;;;;;;;;;;;;;17.57;52.94;100242.69;5410475;32;34894;-67
2023/06/12 01:43:47;;;;;;;;;;;;;;;17.16;54.08;100250.91;5415088;32;34578;-71
2023/06/12 01:46:49;;;;;;;;;;;;;;;17.49;53.52;100246.87;5423810;32;34901;-72
2023/06/12 01:49:51;;;;;;;;;;;;;;;17.86;52.33;100247.81;5429040;32;34205;-73
2023/06/12 01:52:53;;;;;;;;;;;;;;;17.48;53.61;100247.81;5428597;32;34415;-72
2023/06/12 01:55:56;;;;;;;;;;;;;;;17.26;53.79;100251.97;5424414;32;35544;-67
2023/06/12 01:58:58;;;;;;;;;;;;;;;17.79;52.50;100249.22;5416421;32;35046;-68
2023/06/12 02:02:00;;;;;;;;;;;;;;;17.23;54.09;100254.84;5422975;32;34688;-72
2023/06/12 02:05:03;;;;;;;;;;;;;;;17.24;54.19;100259.19;5413773;32;35203;-74
2023/06/12 02:08:05;;;;;;;;;;;;;;;17.05;54.26;100258.75;5423079;32;34598;-67
2023/06/12 02:11:07;;;;;;;;;;;;;;;17.02;54.86;100266.94;5427680;32;35202;-66
2023/06/12 02:14:10;;;;;;;;;;;;;;;17.25;53.87;100258.22;5429346;32;34524;-72
2023/06/12 02:17:13;;;;;;;;;;;;;;;17.24;53.76;100256.53;5425685;32;34604;-70
2023/06/12 02:20:15;;;;;;;;;;;;;;;16.91;54.73;100254.37;5430676;32;34377;-66
2023/06/12 02:23:17;;;;;;;;;;;;;;;17.44;53.40;100243.66;5424020;32;34853;-73
2023/06/12 02:26:20;;;;;;;;;;;;;;;16.94;54.76;100256.84;5417479;32;35189;-71
2023/06/12 02:29:22;;;;;;;;;;;;;;;16.45;55.90;100256.53;5427276;32;34268;-73
2023/06/12 02:32:24;;;;;;;;;;;;;;;17.01;54.15;100257.28;5425872;32;34592;-66
2023/06/12 02:35:26;;;;;;;;;;;;;;;17.35;53.44;100254.94;5412638;32;35555;-70
2023/06/12 02:38:28;;;;;;;;;;;;;;;17.22;53.04;100236.34;5409772;32;36211;-68
2023/06/12 02:41:30;;;;;;;;;;;;;;;17.26;53.65;100265.25;5415062;32;34932;-66
2023/06/12 02:44:32;;;;;;;;;;;;;;;17.44;53.03;100262.28;5425982;32;35597;-71
2023/06/12 02:47:34;;;;;;;;;;;;;;;16.95;54.01;100271.81;5428601;32;34702;-65
2023/06/12 02:50:36;;;;;;;;;;;;;;;16.58;54.67;100275.16;5396735;32;35393;-71
2023/06/12 02:53:38;;;;;;;;;;;;;;;16.82;54.39;100257.66;5426764;32;34589;-66
2023/06/12 02:56:45;;;;;;;;;;;;;;;16.57;55.42;100279.62;5428624;32;34914;-67
2023/06/12 02:59:47;;;;;;;;;;;;;;;17.18;54.08;100272.03;5427569;32;34624;-67
2023/06/12 03:02:49;;;;;;;;;;;;;;;16.70;54.88;100280.53;5428513;32;34539;-66
2023/06/12 03:05:51;;;;;;;;;;;;;;;17.20;53.60;100273.66;5421856;32;34574;-70
2023/06/12 03:08:53;;;;;;;;;;;;;;;17.00;54.40;100266.16;5426770;32;35461;-71
2023/06/12 03:11:55;;;;;;;;;;;;;;;17.19;53.96;100279.03;5422248;32;35072;-73
2023/06/12 03:14:59;;;;;;;;;;;;;;;16.35;56.12;100284.59;5410442;32;35501;-66
2023/06/12 03:18:01;;;;;;;;;;;;;;;16.98;54.81;100287.50;5413651;32;35540;-66
2023/06/12 03:21:03;;;;;;;;;;;;;;;17.35;53.56;100276.19;5425622;32;34860;-66
2023/06/12 03:24:05;;;;;;;;;;;;;;;17.20;53.55;100276.31;5407574;32;35696;-71
2023/06/12 03:27:08;;;;;;;;;;;;;;;16.72;54.38;100261.88;5427434;32;35526;-71
2023/06/12 03:30:10;;;;;;;;;;;;;;;16.78;54.65;100272.91;5429196;32;35189;-67
2023/06/12 03:33:13;;;;;;;;;;;;;;;16.76;54.78;100274.84;5425298;32;35281;-72
2023/06/12 03:36:16;;;;;;;;;;;;;;;16.98;53.43;100266.28;5410428;32;34518;-74
2023/06/12 03:39:19;;;;;;;;;;;;;;;16.89;53.80;100269.56;5429850;32;35053;-67
2023/06/12 03:42:21;;;;;;;;;;;;;;;16.55;54.46;100276.22;5422695;32;34948;-66
2023/06/12 03:45:23;;;;;;;;;;;;;;;16.81;54.01;100273.66;5429206;32;34297;-72
2023/06/12 03:48:25;;;;;;;;;;;;;;;17.11;53.03;100281.37;5422502;32;34600;-71
2023/06/12 03:51:27;;;;;;;;;;;;;;;16.82;53.42;100276.22;5427328;32;35567;-67
2023/06/12 03:54:29;;;;;;;;;;;;;;;16.90;53.36;100281.03;5426705;32;34771;-66
2023/06/12 03:57:31;;;;;;;;;;;;;;;17.51;51.71;100279.47;5421781;32;36038;-72
2023/06/12 04:00:33;;;;;;;;;;;;;;;17.65;51.14;100274.06;5429086;32;34643;-75
2023/06/12 04:03:38;;;;;;;;;;;;;;;16.60;53.21;100284.72;5423726;32;34620;-72
2023/06/12 04:06:41;;;;;;;;;;;;;;;17.23;52.00;100277.87;5427086;32;35709;-67
2023/06/12 04:09:44;;;;;;;;;;;;;;;17.60;51.17;100271.72;5425716;32;34433;-66
2023/06/12 04:12:46;;;;;;;;;;;;;;;16.89;52.60;100281.97;5428412;32;35663;-73
2023/06/12 04:15:48;;;;;;;;;;;;;;;17.70;50.96;100274.56;5429103;32;34917;-67
2023/06/12 04:18:50;;;;;;;;;;;;;;;17.95;49.66;100276.38;5427333;32;35436;-73
2023/06/12 04:21:52;;;;;;;;;;;;;;;17.43;51.02;100277.37;5414606;32;33881;-72
2023/06/12 04:24:55;;;;;;;;;;;;;;;17.58;50.46;100271.00;5413421;32;35321;-68
2023/06/12 04:27:58;;;;;;;;;;;;;;;17.18;51.68;100267.56;5430466;32;35437;-67
2023/06/12 04:31:00;;;;;;;;;;;;;;;17.74;50.34;100273.44;5426669;32;35148;-71
2023/06/12 04:34:02;;;;;;;;;;;;;;;18.00;49.53;100266.28;5428203;32;34377;-71
2023/06/12 04:37:08;;;;;;;;;;;;;;;18.38;48.51;100265.31;5428563;32;34371;-65
2023/06/12 04:40:11;;;;;;;;;;;;;;;18.32;48.33;100271.06;5427185;32;34927;-70
2023/06/12 04:43:13;;;;;;;;;;;;;;;18.21;48.36;100273.66;5416158;32;35427;-67
2023/06/12 04:46:18;;;;;;;;;;;;;;;19.14;45.92;100278.22;5426505;32;34367;-66
2023/06/12 04:49:20;;;;;;;;;;;;;;;18.20;48.09;100288.78;5430104;32;35219;-66
2023/06/12 04:52:22;;;;;;;;;;;;;;;18.99;46.32;100278.53;5425302;32;35421;-71
2023/06/12 04:55:28;;;;;;;;;;;;;;;19.03;45.47;100272.03;5427113;32;34910;-72
2023/06/12 04:58:32;;;;;;;;;;;;;;;20.31;42.90;100271.72;5429334;32;34757;-72
2023/06/12 05:01:33;;;;;;;;;;;;;;;20.09;42.65;100276.12;5425276;32;34241;-71
2023/06/12 05:04:37;;;;;;;;;;;;;;;20.06;42.12;100283.53;5429568;32;35124;-71
2023/06/12 05:07:41;;;;;;;;;;;;;;;20.51;41.26;100276.31;5423721;32;35316;-71
2023/06/12 05:10:43;;;;;;;;;;;;;;;20.99;40.44;100275.88;5428683;32;35474;-66
2023/06/12 05:13:45;;;;;;;;;;;;;;;20.42;40.79;100277.06;5427074;32;34918;-71
2023/06/12 05:16:47;;;;;;;;;;;;;;;19.91;42.02;100286.47;5425170;32;34116;-69
2023/06/12 05:19:49;;;;;;;;;;;;;;;21.03;39.57;100286.16;5430321;32;35101;-72
2023/06/12 05:22:54;;;;;;;;;;;;;;;21.84;38.38;100262.31;5420108;32;34765;-67
2023/06/12 05:25:56;;;;;;;;;;;;;;;21.84;37.96;100271.19;5410455;32;35071;-68
2023/06/12 05:28:58;;;;;;;;;;;;;;;22.52;36.79;100271.37;5420662;32;34822;-72
2023/06/12 05:32:00;;;;;;;;;;;;;;;21.20;38.95;100282.09;5410804;32;34331;-71
2023/06/12 05:35:02;;;;;;;;;;;;;;;21.08;39.10;100278.63;5407556;32;34823;-68
2023/06/12 05:38:06;;;;;;;;;;;;;;;23.07;35.02;100278.91;5414338;32;36887;-75
2023/06/12 05:41:08;;;;;;;;;;;;;;;22.99;35.12;100279.59;5424984;32;34410;-67
2023/06/12 05:44:10;;;;;;;;;;;;;;;22.79;36.08;100272.50;5423571;32;34426;-73
2023/06/12 05:47:13;;;;;;;;;;;;;;;21.33;38.02;100292.59;5422375;32;35558;-65
2023/06/12 05:50:17;;;;;;;;;;;;;;;21.92;37.72;100281.22;5416803;32;35474;-67
2023/06/12 05:53:20;;;;;;;;;;;;;;;22.64;35.77;100289.00;5410618;32;34294;-69
2023/06/12 05:56:25;;;;;;;;;;;;;;;22.41;36.32;100279.53;5422621;32;35176;-63
2023/06/12 05:59:27;;;;;;;;;;;;;;;23.55;34.23;100286.00;5421947;32;34256;-64
2023/06/12 06:02:30;;;;;;;;;;;;;;;22.27;35.61;100293.31;5401495;32;34002;-67
2023/06/12 06:05:33;;;;;;;;;;;;;;;23.29;33.88;100291.13;5404451;32;35387;-71
2023/06/12 06:08:35;;;;;;;;;;;;;;;23.09;33.90;100291.16;5418884;32;34383;-65
2023/06/12 06:11:37;;;;;;;;;;;;;;;22.37;34.84;100296.88;5411527;32;33107;-64
2023/06/12 06:14:42;;;;;;;;;;;;;;;22.79;34.06;100297.47;5408598;32;34049;-68
2023/06/12 06:17:44;;;;;;;;;;;;;;;23.30;32.88;100290.97;5414363;32;34307;-66
2023/06/12 06:20:48;;;;;;;;;;;;;;;23.36;32.46;100293.09;5416669;32;34992;-65
2023/06/12 06:23:50;;;;;;;;;;;;;;;23.62;31.43;100293.34;5419932;32;34617;-68
2023/06/12 06:26:55;;;;;;;;;;;;;;;22.92;32.53;100289.19;5419135;32;35794;-69
2023/06/12 06:29:57;;;;;;;;;;;;;;;22.96;32.18;100286.09;5408842;32;34919;-64
2023/06/12 06:33:00;;;;;;;;;;;;;;;23.89;31.48;100284.47;5418304;32;34397;-68
2023/06/12 06:36:02;;;;;;;;;;;;;;;23.36;31.77;100281.53;5410299;32;34346;-73
2023/06/12 06:39:07;;;;;;;;;;;;;;;23.91;30.90;100290.56;5419519;32;35643;-65
2023/06/12 06:42:09;;;;;;;;;;;;;;;24.32;29.79;100289.19;5408239;32;34736;-63
2023/06/12 06:45:12;;;;;;;;;;;;;;;23.02;31.80;100295.41;5423593;32;33523;-73
2023/06/12 06:48:20;;;;;;;;;;;;;;;23.09;31.42;100291.16;5423453;32;34343;-65
2023/06/12 06:51:22;;;;;;;;;;;;;;;23.38;30.71;100306.34;5425749;32;33193;-67
2023/06/12 06:54:26;;;;;;;;;;;;;;;23.92;30.21;100296.75;5416201;32;35401;-64
2023/06/12 06:57:28;;;;;;;;;;;;;;;24.14;29.53;100298.19;5419365;32;34365;-70
2023/06/12 07:00:30;;;;;;;;;;;;;;;24.83;28.13;100298.47;5389645;32;34663;-69
2023/06/12 07:03:32;;;;;;;;;;;;;;;24.37;28.57;100296.00;5412618;32;35741;-67
2023/06/12 07:06:34;;;;;;;;;;;;;;;25.39;26.66;100291.91;5387894;32;1103763;-68
2023/06/12 07:09:36;;;;;;;;;;;;;;;25.95;26.26;100284.34;5420365;32;34865;-67
2023/06/12 07:12:39;;;;;;;;;;;;;;;25.39;26.44;100286.53;5415794;32;35949;-69
2023/06/12 07:15:41;;;;;;;;;;;;;;;24.02;28.23;100295.75;5406536;32;35074;-69
2023/06/12 07:18:44;;;;;;;;;;;;;;;25.66;26.00;100295.44;5390576;32;34243;-70
2023/06/12 07:21:46;;;;;;;;;;;;;;;26.12;26.10;100291.47;5395309;32;34866;-71
2023/06/12 07:24:48;;;;;;;;;;;;;;;25.71;26.13;100290.44;5391648;32;37426;-72
2023/06/12 07:27:50;;;;;;;;;;;;;;;27.39;23.41;100280.41;5419676;32;36565;-66
2023/06/12 07:30:52;;;;;;;;;;;;;;;25.87;25.32;100274.37;5405173;32;34111;-76
2023/06/12 07:33:54;;;;;;;;;;;;;;;25.69;25.55;100280.81;5418767;32;34322;-66
2023/06/12 07:36:58;;;;;;;;;;;;;;;25.24;26.05;100282.72;5405122;32;34753;-68
2023/06/12 07:40:00;;;;;;;;;;;;;;;26.68;24.38;100275.66;5416681;32;34356;-69
2023/06/12 07:43:02;;;;;;;;;;;;;;;26.37;24.55;100283.47;5410654;32;35897;-67
2023/06/12 07:46:06;;;;;;;;;;;;;;;26.07;25.05;100272.25;5408222;32;34134;-65
2023/06/12 07:49:08;;;;;;;;;;;;;;;27.67;23.05;100269.19;5391084;32;36109;-63
2023/06/12 07:52:12;;;;;;;;;;;;;;;26.27;24.60;100282.78;5403557;32;34500;-65
2023/06/12 07:55:14;;;;;;;;;;;;;;;26.95;23.39;100280.72;5403593;32;34324;-72
2023/06/12 07:58:17;;;;;;;;;;;;;;;26.98;23.48;100277.72;5408632;32;34192;-63
2023/06/12 08:01:22;;;;;;;;;;;;;;;27.89;22.55;100267.66;5404189;32;34210;-68
2023/06/12 08:04:26;;;;;;;;;;;;;;;27.87;22.50;100270.50;5406029;32;34431;-73
2023/06/12 08:07:30;;;;;;;;;;;;;;;26.98;22.95;100283.09;5401805;32;34360;-71
2023/06/12 08:10:32;;;;;;;;;;;;;;;26.38;23.23;100279.78;5411218;32;35685;-73
2023/06/12 08:13:34;;;;;;;;;;;;;;;25.99;23.41;100284.87;5402588;32;34493;-70
2023/06/12 08:16:40;;;;;;;;;;;;;;;27.10;23.18;100275.53;5399580;32;34099;-74
2023/06/12 08:19:42;;;;;;;;;;;;;;;28.83;20.85;100262.03;5406990;32;34211;-66
2023/06/12 08:22:44;;;;;;;;;;;;;;;28.51;21.39;100267.69;5398875;32;34258;-71
2023/06/12 08:25:47;;;;;;;;;;;;;;;28.32;21.30;100264.41;5403325;32;34180;-70
2023/06/12 08:28:51;;;;;;;;;;;;;;;27.80;21.25;100278.47;5405248;32;35583;-68
2023/06/12 08:31:57;;;;;;;;;;;;;;;28.49;21.13;100269.72;5406852;32;34433;-79
2023/06/12 08:34:59;;;;;;;;;;;;;;;29.72;19.94;100264.13;5374133;32;34392;-75
2023/06/12 08:38:02;;;;;;;;;;;;;;;27.26;22.81;100275.53;5403923;32;33973;-66
2023/06/12 08:41:04;;;;;;;;;;;;;;;26.44;23.34;100271.91;5408123;32;34155;-66
2023/06/12 08:44:06;;;;;;;;;;;;;;;27.66;22.52;100262.12;5390513;32;34862;-67
2023/06/12 08:47:08;;;;;;;;;;;;;;;28.16;21.64;100256.38;5382507;32;35606;-73
2023/06/12 08:50:10;;;;;;;;;;;;;;;28.71;21.58;100263.47;5390415;32;34226;-73
2023/06/12 08:53:12;;;;;;;;;;;;;;;28.58;20.94;100258.66;5413022;32;34435;-68
2023/06/12 08:56:14;;;;;;;;;;;;;;;29.39;20.48;100269.84;5408818;32;34346;-74
2023/06/12 08:59:16;;;;;;;;;;;;;;;29.87;20.06;100270.34;5412050;32;35769;-72
2023/06/12 09:02:19;;;;;;;;;;;;;;;28.96;20.60;100266.84;5404472;32;36826;-76
2023/06/12 09:05:27;;;;;;;;;;;;;;;29.94;19.38;100263.16;5390936;32;35533;-65
2023/06/12 09:08:30;;;;;;;;;;;;;;;28.63;20.58;100265.41;5399220;32;35543;-65
2023/06/12 09:11:34;;;;;;;;;;;;;;;29.35;20.71;100265.81;5395265;32;35141;-72
2023/06/12 09:14:38;;;;;;;;;;;;;;;27.85;22.11;100261.75;5410336;32;34227;-67
2023/06/12 09:17:42;;;;;;;;;;;;;;;28.17;21.85;100263.47;5383135;32;32914;-67
2023/06/12 09:20:44;;;;;;;;;;;;;;;28.73;21.34;100263.31;5394967;32;35808;-66
2023/06/12 09:23:50;;;;;;;;;;;;;;;29.82;20.39;100259.22;5400648;32;34272;-66
2023/06/12 09:26:55;;;;;;;;;;;;;;;29.96;20.01;100252.97;5402416;32;34297;-71
2023/06/12 09:30:00;;;;;;;;;;;;;;;28.74;21.30;100265.00;5409432;32;35689;-71
2023/06/12 09:33:03;;;;;;;;;;;;;;;28.46;21.29;100276.31;5406027;32;35245;-67
2023/06/12 09:36:05;;;;;;;;;;;;;;;27.82;22.15;100264.78;5403975;32;35523;-71
2023/06/12 09:39:08;;;;;;;;;;;;;;;28.98;21.18;100264.84;5396497;32;33421;-72
2023/06/12 09:42:13;;;;;;;;;;;;;;;28.45;21.75;100274.63;5405951;32;34733;-69
2023/06/12 09:45:20;;;;;;;;;;;;;;;27.86;22.76;100266.12;5412798;32;34392;-68
2023/06/12 09:48:25;;;;;;;;;;;;;;;28.22;22.77;100261.06;5402530;32;34136;-68
2023/06/12 09:51:27;;;;;;;;;;;;;;;28.52;22.38;100253.97;5393192;32;34351;-71
2023/06/12 09:54:32;;;;;;;;;;;;;;;29.52;21.29;100261.97;5408705;32;33871;-68
2023/06/12 09:57:37;;;;;;;;;;;;;;;30.31;20.40;100258.63;5393727;32;35510;-64
2023/06/12 10:00:39;;;;;;;;;;;;;;;31.24;19.23;100255.00;5402075;32;34240;-69
2023/06/12 10:03:42;;;;;;;;;;;;;;;31.42;18.80;100259.91;5384816;32;35122;-70
2023/06/12 10:06:47;;;;;;;;;;;;;;;32.16;18.12;100245.69;5402678;32;34716;-74
2023/06/12 10:09:51;;;;;;;;;;;;;;;30.11;20.66;100252.97;5409811;32;34088;-67
2023/06/12 10:12:53;;;;;;;;;;;;;;;31.34;19.48;100246.50;5396383;32;34571;-71
2023/06/12 10:15:55;;;;;;;;;;;;;;;30.04;20.04;100246.63;5404113;32;34440;-68
2023/06/12 10:18:57;;;;;;;;;;;;;;;28.28;22.00;100254.13;5392051;32;34797;-71
2023/06/12 10:22:02;;;;;;;;;;;;;;;29.70;20.90;100260.75;5396370;32;32489;-68
2023/06/12 10:25:04;;;;;;;;;;;;;;;31.54;18.97;100242.84;5407431;32;34190;-71
2023/06/12 10:28:12;;;;;;;;;;;;;;;28.86;22.38;100250.87;5409527;32;34158;-66
2023/06/12 10:31:18;;;;;;;;;;;;;;;29.07;21.81;100250.19;5395352;32;35366;-64
2023/06/12 10:34:20;;;;;;;;;;;;;;;31.88;18.88;100234.91;5387062;32;36401;-74
2023/06/12 10:37:23;;;;;;;;;;;;;;;30.52;20.03;100236.13;5411821;32;36593;-73
2023/06/12 10:40:25;;;;;;;;;;;;;;;29.19;21.05;100239.78;5409123;32;34943;-64
2023/06/12 10:43:47;;;;;;;;;;;;;;;29.78;20.65;100239.81;5397538;32;34482;-68
2023/06/12 10:47:01;;;;;;;;;;;;;;;30.28;20.37;100230.06;5405585;32;36717;-64
2023/06/12 10:50:04;;;;;;;;;;;;;;;29.79;20.90;100224.41;5403933;32;34911;-66
2023/06/12 10:53:08;;;;;;;;;;;;;;;29.63;20.99;100239.00;5399967;32;35842;-67
2023/06/12 10:56:10;;;;;;;;;;;;;;;28.13;22.33;100228.84;5411403;32;36440;-73
2023/06/12 10:59:14;;;;;;;;;;;;;;;30.72;19.37;100221.78;5421727;32;34555;-75
2023/06/12 11:02:16;;;;;;;;;;;;;;;32.33;17.49;100211.66;5407096;32;34247;-63
2023/06/12 11:05:18;;;;;;;;;;;;;;;32.95;17.37;100209.66;5410083;32;34923;-64
2023/06/12 11:08:23;;;;;;;;;;;;;;;32.30;17.79;100212.06;5419702;32;34263;-75
2023/06/12 11:11:25;;;;;;;;;;;;;;;30.82;19.41;100205.16;5417816;32;34143;-63
2023/06/12 11:14:31;;;;;;;;;;;;;;;31.05;19.43;100204.09;5421757;32;35409;-74
2023/06/12 11:17:33;;;;;;;;;;;;;;;32.51;17.97;100198.31;5421627;32;35298;-63
2023/06/12 11:20:35;;;;;;;;;;;;;;;31.51;18.46;100190.84;5405393;32;35925;-83
2023/06/12 11:23:42;;;;;;;;;;;;;;;30.18;19.95;100186.97;5405524;32;34218;-66
2023/06/12 11:26:53;;;;;;;;;;;;;;;29.70;20.19;100198.47;5410704;32;35784;-72
2023/06/12 11:29:55;;;;;;;;;;;;;;;30.37;19.82;100192.81;5418347;32;33745;-67
2023/06/12 11:33:10;;;;;;;;;;;;;;;29.90;20.20;100191.44;5412699;32;33300;-70
2023/06/12 11:36:16;;;;;;;;;;;;;;;31.40;18.76;100191.38;5413759;32;34490;-64
2023/06/12 11:39:19;;;;;;;;;;;;;;;31.91;17.74;100178.28;5422918;32;35485;-67
2023/06/12 11:42:24;;;;;;;;;;;;;;;32.73;16.87;100188.09;5420884;32;35080;-69
2023/06/12 11:45:29;;;;;;;;;;;;;;;31.98;17.82;100184.56;5419091;32;34593;-64
2023/06/12 11:48:32;;;;;;;;;;;;;;;31.73;18.23;100186.13;5408434;32;36120;-66
2023/06/12 11:51:39;;;;;;;;;;;;;;;29.40;19.96;100207.41;5418738;32;36055;-72
2023/06/12 11:54:56;;;;;;;;;;;;;;;30.93;18.39;100184.78;5406941;32;34347;-72
2023/06/12 11:58:01;;;;;;;;;;;;;;;30.04;19.37;100178.88;5421203;32;35133;-67
2023/06/12 12:01:13;;;;;;;;;;;;;;;30.38;18.98;100191.75;5414031;32;34355;-69
2023/06/12 12:04:17;;;;;;;;;;;;;;;30.33;18.89;100181.50;5406314;32;35419;-70
2023/06/12 12:07:20;;;;;;;;;;;;;;;29.35;18.62;100192.75;5417330;32;35455;-69
2023/06/12 12:10:24;;;;;;;;;;;;;;;28.30;20.54;100188.06;5418895;32;33297;-65
2023/06/12 12:13:26;;;;;;;;;;;;;;;26.06;22.83;100187.09;5399485;32;34429;-68
2023/06/12 12:16:29;;;;;;;;;;;;;;;25.75;23.67;100188.69;5403680;32;35420;-71
2023/06/12 12:19:32;;;;;;;;;;;;;;;26.32;21.94;100186.97;5405999;32;36871;-70
2023/06/12 12:22:41;;;;;;;;;;;;;;;25.30;23.35;100190.63;5416672;32;33798;-69
2023/06/12 12:25:44;;;;;;;;;;;;;;;26.55;21.69;100181.81;5408378;32;35237;-68
2023/06/12 12:28:46;;;;;;;;;;;;;;;26.21;20.20;100179.22;5421718;32;34203;-66
2023/06/12 12:31:48;;;;;;;;;;;;;;;26.71;20.77;100180.97;5419846;32;35240;-68
2023/06/12 12:34:50;;;;;;;;;;;;;;;25.23;21.85;100177.97;5412774;32;34202;-63
2023/06/12 12:37:53;;;;;;;;;;;;;;;25.86;21.19;100175.78;5420591;32;34969;-68
2023/06/12 12:40:55;;;;;;;;;;;;;;;25.25;22.26;100192.97;5426549;32;34606;-67
2023/06/12 12:44:00;;;;;;;;;;;;;;;24.95;23.32;100174.59;5419180;32;33281;-63
2023/06/12 12:47:02;;;;;;;;;;;;;;;25.22;24.17;100187.06;5423110;32;34301;-67
2023/06/12 12:50:04;;;;;;;;;;;;;;;25.67;24.23;100171.47;5407912;32;34388;-64
2023/06/12 12:53:21;;;;;;;;;;;;;;;25.91;23.58;100178.00;5419704;32;34451;-67
2023/06/12 12:56:24;;;;;;;;;;;;;;;24.93;24.98;100185.50;5419689;32;34365;-65
2023/06/12 12:59:26;;;;;;;;;;;;;;;25.73;22.27;100177.25;5422033;32;34497;-63
2023/06/12 13:02:30;;;;;;;;;;;;;;;25.33;22.30;100168.81;5417979;32;34847;-67
2023/06/12 13:05:32;;;;;;;;;;;;;;;25.36;23.04;100167.62;5424317;32;34234;-72
2023/06/12 13:08:37;;;;;;;;;;;;;;;25.66;22.48;100167.09;5414419;32;35460;-67
2023/06/12 13:11:42;;;;;;;;;;;;;;;25.67;21.42;100170.62;5415541;32;35732;-66
2023/06/12 13:14:45;;;;;;;;;;;;;;;25.32;19.58;100172.50;5413518;32;35457;-70
2023/06/12 13:17:47;;;;;;;;;;;;;;;25.62;21.02;100164.88;5405707;32;34256;-67
2023/06/12 13:20:49;;;;;;;;;;;;;;;25.30;22.06;100163.72;5404218;32;34086;-64
2023/06/12 13:23:52;;;;;;;;;;;;;;;25.89;22.41;100156.63;5416200;32;34388;-70
2023/06/12 13:26:57;;;;;;;;;;;;;;;24.39;24.16;100162.37;5406418;32;35571;-73
2023/06/12 13:29:59;;;;;;;;;;;;;;;25.44;22.91;100158.75;5418681;32;35439;-70
2023/06/12 13:33:02;;;;;;;;;;;;;;;25.09;23.15;100156.06;5424690;32;34505;-83
2023/06/12 13:36:05;;;;;;;;;;;;;;;25.04;23.73;100163.75;5425013;32;35751;-69
2023/06/12 13:39:06;;;;;;;;;;;;;;;25.31;23.34;100162.75;5421742;32;35497;-86
2023/06/12 13:42:09;;;;;;;;;;;;;;;25.41;22.59;100153.72;5418563;32;34658;-74
2023/06/12 13:45:12;;;;;;;;;;;;;;;26.12;22.23;100145.22;5421742;32;34258;-73
2023/06/12 13:48:15;;;;;;;;;;;;;;;25.23;19.36;100141.16;5412419;32;34574;-70
2023/06/12 13:51:19;;;;;;;;;;;;;;;26.04;18.12;100146.03;5421992;32;34303;-76
2023/06/12 13:54:21;;;;;;;;;;;;;;;25.66;20.33;100147.41;5425747;32;35312;-64
2023/06/12 13:57:23;;;;;;;;;;;;;;;25.59;20.19;100143.69;5424038;32;34238;-66
2023/06/12 14:00:26;;;;;;;;;;;;;;;25.87;18.69;100131.69;5426875;32;35668;-67
2023/06/12 14:03:28;;;;;;;;;;;;;;;26.04;19.61;100137.12;5419778;32;34395;-71
2023/06/12 14:06:32;;;;;;;;;;;;;;;25.57;20.98;100140.34;5415235;32;35395;-72
2023/06/12 14:09:35;;;;;;;;;;;;;;;25.77;22.39;100135.56;5411688;32;34103;-66
2023/06/12 14:12:37;;;;;;;;;;;;;;;25.63;23.41;100143.22;5391396;32;34343;-68
2023/06/12 14:15:40;;;;;;;;;;;;;;;25.31;24.19;100141.25;5403142;32;35658;-70
2023/06/12 14:18:42;;;;;;;;;;;;;;;25.35;23.88;100137.19;5407233;32;36913;-74
2023/06/12 14:21:45;;;;;;;;;;;;;;;25.32;23.60;100142.91;5406977;32;34651;-68
2023/06/12 14:24:47;;;;;;;;;;;;;;;24.83;24.69;100147.97;5407371;32;34414;-73
2023/06/12 14:27:49;;;;;;;;;;;;;;;25.40;24.47;100139.41;5411883;32;35948;-69
2023/06/12 14:30:51;;;;;;;;;;;;;;;25.67;23.48;100138.34;5419834;32;34305;-72
2023/06/12 14:33:53;;;;;;;;;;;;;;;25.32;23.78;100136.69;5420316;32;34221;-76
2023/06/12 14:36:55;;;;;;;;;;;;;;;25.33;23.93;100131.16;5409334;32;34745;-64
2023/06/12 14:40:00;;;;;;;;;;;;;;;25.24;24.65;100121.34;5412778;32;34305;-68
2023/06/12 14:43:03;;;;;;;;;;;;;;;25.46;24.38;100154.06;5426293;32;34312;-68
2023/06/12 14:46:05;;;;;;;;;;;;;;;25.65;23.35;100143.06;5425402;32;34414;-71
2023/06/12 14:49:07;;;;;;;;;;;;;;;24.91;23.99;100157.09;5418434;32;35939;-64
2023/06/12 14:52:09;;;;;;;;;;;;;;;25.16;23.73;100141.97;5418641;32;32934;-66
2023/06/12 14:55:32;;;;;;;;;;;;;;;26.18;22.64;100140.00;5413014;32;34721;-68
2023/06/12 14:58:34;;;;;;;;;;;;;;;25.50;24.07;100136.59;5424708;32;36283;-71
2023/06/12 15:01:36;;;;;;;;;;;;;;;25.76;23.98;100134.72;5419671;32;34434;-65
2023/06/12 15:04:39;;;;;;;;;;;;;;;25.70;24.56;100132.66;5408732;32;34406;-65
2023/06/12 15:07:41;;;;;;;;;;;;;;;25.07;24.11;100146.47;5404619;32;34274;-73
2023/06/12 15:10:44;;;;;;;;;;;;;;;25.19;24.44;100149.75;5416863;32;34234;-66
2023/06/12 15:13:46;;;;;;;;;;;;;;;24.77;24.45;100151.28;5417142;32;34347;-72
2023/06/12 15:16:48;;;;;;;;;;;;;;;24.56;24.38;100157.00;5403302;32;34199;-63
2023/06/12 15:19:52;;;;;;;;;;;;;;;24.30;24.23;100148.84;5422125;32;34643;-70
2023/06/12 15:22:54;;;;;;;;;;;;;;;24.77;23.46;100147.75;5417732;32;34232;-71
2023/06/12 15:25:56;;;;;;;;;;;;;;;25.53;22.23;100152.41;5422678;32;34308;-70
2023/06/12 15:29:01;;;;;;;;;;;;;;;25.30;22.09;100144.06;5421318;32;34643;-72
2023/06/12 15:32:04;;;;;;;;;;;;;;;26.13;21.13;100141.50;5420381;32;34711;-65
2023/06/12 15:35:09;;;;;;;;;;;;;;;25.66;22.63;100134.81;5424524;32;34142;-65
2023/06/12 15:38:30;;;;;;;;;;;;;;;25.71;23.19;100138.87;5405008;32;34850;-71
2023/06/12 15:41:32;;;;;;;;;;;;;;;25.36;23.79;100138.87;5415288;32;34703;-71